createdAt,value
2023-05-12T00:00:49.486Z,97519.69
2023-05-12T00:03:17.447Z,97502.69
2023-05-12T00:05:45.333Z,97477.09
2023-05-12T00:08:13.085Z,97417.03
2023-05-12T00:10:42.241Z,97371.28
2023-05-12T00:13:10.416Z,97330.88
2023-05-12T00:15:38.708Z,97289.84
2023-05-12T00:18:06.760Z,97247.13
2023-05-12T00:20:34.720Z,97206.09
2023-05-12T00:23:02.825Z,97167.84
2023-05-12T00:25:30.588Z,97121.53
2023-05-12T00:27:59.754Z,97090.91
2023-05-12T00:30:27.667Z,97055.19
2023-05-12T00:32:55.631Z,97027.81
2023-05-12T00:35:23.620Z,96988.66
2023-05-12T00:37:51.452Z,96973.19
2023-05-12T00:40:19.718Z,96951.16
2023-05-12T00:42:51.042Z,96931.56
2023-05-12T00:45:20.585Z,96905.88
2023-05-12T00:47:48.515Z,96894.19
2023-05-12T00:50:16.891Z,96871.19
2023-05-12T00:52:45.114Z,96854.09
2023-05-12T00:55:12.935Z,96837.97
2023-05-12T00:57:41.677Z,96808.84
2023-05-12T01:00:10.706Z,96796.84
2023-05-12T01:02:40.495Z,96794.69
2023-05-12T01:05:09.929Z,96763.66
2023-05-12T01:07:39.948Z,96757.06
2023-05-12T01:10:19.128Z,96753.78
2023-05-12T01:12:47.253Z,96720.72
2023-05-12T01:15:15.199Z,96724.53
2023-05-12T01:17:48.891Z,96711.03
2023-05-12T01:20:18.605Z,96699.22
2023-05-12T01:22:49.250Z,96681.00
2023-05-12T01:25:18.384Z,96673.59
2023-05-12T01:27:47.874Z,96668.34
2023-05-12T01:30:18.997Z,96669.63
2023-05-12T01:32:47.111Z,96650.44
2023-05-12T01:35:14.893Z,96645.50
2023-05-12T01:37:42.826Z,96646.34
2023-05-12T01:40:11.206Z,96658.31
2023-05-12T01:42:40.287Z,96668.34
2023-05-12T01:45:11.022Z,96688.19
2023-05-12T01:47:40.320Z,96692.16
2023-05-12T01:50:09.205Z,96705.13
2023-05-12T01:52:38.870Z,96724.53
2023-05-12T01:55:07.265Z,96739.00
2023-05-12T01:57:35.915Z,96763.00
2023-05-12T02:00:05.558Z,96753.47
2023-05-12T02:02:34.863Z,96741.63
2023-05-12T02:05:02.607Z,96722.06
2023-05-12T02:07:30.528Z,96698.22
2023-05-12T02:09:58.522Z,96672.44
2023-05-12T02:12:26.311Z,96660.78
2023-05-12T02:14:54.082Z,96646.34
2023-05-12T02:17:21.934Z,96659.13
2023-05-12T02:19:51.279Z,96671.13
2023-05-12T02:22:19.082Z,96709.41
2023-05-12T02:24:47.048Z,96753.78
2023-05-12T02:27:14.901Z,96765.28
2023-05-12T02:29:43.092Z,96785.16
2023-05-12T02:32:11.284Z,96792.22
2023-05-12T02:34:39.321Z,96797.00
2023-05-12T02:37:08.438Z,96793.72
2023-05-12T02:39:36.408Z,96796.19
2023-05-12T02:42:04.527Z,96803.91
2023-05-12T02:44:32.273Z,96815.75
2023-05-12T02:47:00.072Z,96832.03
2023-05-12T02:49:27.927Z,96844.03
2023-05-12T02:51:55.969Z,96846.50
2023-05-12T02:54:25.240Z,96836.47
2023-05-12T02:56:53.252Z,96818.91
2023-05-12T02:59:21.036Z,96834.66
2023-05-12T03:01:48.905Z,96836.16
2023-05-12T03:04:16.722Z,96855.72
2023-05-12T03:06:44.435Z,96885.66
2023-05-12T03:09:13.882Z,96913.09
2023-05-12T03:11:43.032Z,96942.59
2023-05-12T03:14:11.220Z,96962.31
2023-05-12T03:16:39.026Z,96985.34
2023-05-12T03:19:06.926Z,97016.13
2023-05-12T03:21:34.839Z,97029.78
2023-05-12T03:24:02.831Z,97060.44
2023-05-12T03:26:30.568Z,97091.06
2023-05-12T03:28:59.701Z,97134.84
2023-05-12T03:31:27.841Z,97160.94
2023-05-12T03:33:55.661Z,97241.31
2023-05-12T03:36:23.892Z,97358.28
2023-05-12T03:38:51.871Z,97453.44
2023-05-12T03:41:19.719Z,97538.00
2023-05-12T03:43:47.644Z,97635.63
2023-05-12T03:46:16.815Z,97698.94
2023-05-12T03:48:44.574Z,97741.63
2023-05-12T03:51:12.579Z,97818.88
2023-05-12T03:53:42.457Z,97895.16
2023-05-12T03:56:10.293Z,97939.81
2023-05-12T03:58:38.145Z,98012.69
2023-05-12T04:01:05.955Z,98098.50
2023-05-12T04:03:35.399Z,98176.72
2023-05-12T04:06:04.324Z,98274.59
2023-05-12T04:08:32.375Z,98363.88
2023-05-12T04:11:01.761Z,98458.50
2023-05-12T04:13:31.151Z,98560.16
2023-05-12T04:15:59.740Z,98635.25
2023-05-12T04:18:28.912Z,98710.25
2023-05-12T04:20:58.240Z,98794.63
2023-05-12T04:23:26.466Z,98856.81
2023-05-12T04:25:54.454Z,98961.09
2023-05-12T04:28:22.578Z,99025.06
2023-05-12T04:30:50.479Z,99139.91
2023-05-12T04:33:18.439Z,99240.16
2023-05-12T04:35:46.800Z,99348.44
2023-05-12T04:38:16.003Z,99444.19
2023-05-12T04:40:43.773Z,99572.50
2023-05-12T04:44:00.106Z,99677.47
2023-05-12T04:46:00.424Z,99776.03
2023-05-12T04:48:28.475Z,99896.31
2023-05-12T04:50:56.833Z,99989.19
2023-05-12T04:53:25.966Z,100058.56
2023-05-12T04:55:53.776Z,100155.84
2023-05-12T04:58:21.531Z,100230.78
2023-05-12T05:00:49.438Z,100302.13
2023-05-12T05:03:17.584Z,100380.63
2023-05-12T05:05:45.973Z,100413.59
2023-05-12T05:08:14.070Z,100471.06
2023-05-12T05:10:43.298Z,100507.69
2023-05-12T05:13:15.138Z,100561.81
2023-05-12T05:15:50.859Z,100628.06
2023-05-12T05:18:21.067Z,100728.41
2023-05-12T05:20:57.968Z,100749.31
2023-05-12T05:23:26.747Z,100810.53
2023-05-12T05:25:56.163Z,100874.34
2023-05-12T05:28:24.063Z,100887.47
2023-05-12T05:30:51.890Z,100985.34
2023-05-12T05:33:19.688Z,101063.03
2023-05-12T05:35:48.194Z,101068.41
2023-05-12T05:38:16.216Z,101143.72
2023-05-12T05:40:52.843Z,101240.88
2023-05-12T05:43:23.158Z,101302.88
2023-05-12T05:45:51.403Z,101386.94
2023-05-12T05:48:19.242Z,101510.59
2023-05-12T05:50:47.041Z,101592.09
2023-05-12T05:53:15.188Z,101692.19
2023-05-12T05:55:43.410Z,101779.88
2023-05-12T05:58:11.419Z,101872.22
2023-05-12T06:00:40.576Z,101906.47
2023-05-12T06:03:08.379Z,101923.94
2023-05-12T06:05:36.337Z,102048.06
2023-05-12T06:08:05.205Z,102014.69
2023-05-12T06:10:33.160Z,102075.22
2023-05-12T06:13:01.134Z,102245.91
2023-05-12T06:15:29.156Z,102295.47
2023-05-12T06:17:58.253Z,102272.56
2023-05-12T06:20:26.021Z,102328.03
2023-05-12T06:22:53.826Z,102416.91
2023-05-12T06:25:21.784Z,102595.97
2023-05-12T06:27:52.737Z,102673.66
2023-05-12T06:30:20.596Z,102714.28
2023-05-12T06:32:48.467Z,102605.00
2023-05-12T06:35:17.984Z,102616.44
2023-05-12T06:37:49.547Z,102671.06
2023-05-12T06:40:17.989Z,102766.69
2023-05-12T06:42:45.963Z,102766.47
2023-05-12T06:45:13.781Z,102790.38
2023-05-12T06:47:41.527Z,102771.22
2023-05-12T06:50:10.045Z,102793.09
2023-05-12T06:52:39.810Z,102855.00
2023-05-12T06:55:08.380Z,102950.34
2023-05-12T06:57:36.256Z,103010.38
2023-05-12T07:00:04.961Z,103054.66
2023-05-12T07:02:32.844Z,103091.72
2023-05-12T07:05:00.712Z,103167.88
2023-05-12T07:07:28.493Z,103168.72
2023-05-12T07:09:58.376Z,103210.47
2023-05-12T07:12:26.203Z,103197.19
2023-05-12T07:14:55.013Z,103221.16
2023-05-12T07:17:22.930Z,103210.56
2023-05-12T07:19:50.704Z,103362.91
2023-05-12T07:22:19.271Z,103441.88
2023-05-12T07:24:48.047Z,103611.88
2023-05-12T07:27:17.738Z,103593.44
2023-05-12T07:29:45.565Z,103681.19
2023-05-12T07:32:13.487Z,103780.53
2023-05-12T07:34:41.300Z,103770.84
2023-05-12T07:37:09.060Z,103808.25
2023-05-12T07:39:36.869Z,103673.19
2023-05-12T07:42:04.905Z,103776.16
2023-05-12T07:44:34.243Z,103923.66
2023-05-12T07:47:02.173Z,103988.63
2023-05-12T07:49:29.947Z,104018.03
2023-05-12T07:51:57.797Z,104119.38
2023-05-12T07:54:25.728Z,104248.31
2023-05-12T07:56:53.502Z,104303.53
2023-05-12T07:59:21.252Z,104164.78
2023-05-12T08:01:50.369Z,104196.81
2023-05-12T08:04:18.163Z,104197.69
2023-05-12T08:06:46.644Z,104174.44
2023-05-12T08:09:16.451Z,104229.63
2023-05-12T08:11:47.082Z,104227.91
2023-05-12T08:14:19.113Z,104350.81
2023-05-12T08:16:47.061Z,104452.34
2023-05-12T08:19:16.224Z,104758.16
2023-05-12T08:21:44.038Z,104882.22
2023-05-12T08:24:11.730Z,104861.03
2023-05-12T08:26:39.431Z,104898.53
2023-05-12T08:29:08.749Z,104922.63
2023-05-12T08:31:37.860Z,104953.81
2023-05-12T08:36:38.164Z,105011.13
2023-05-12T08:39:06.110Z,105006.66
2023-05-12T08:41:43.143Z,105120.09
2023-05-12T08:44:12.031Z,105259.69
2023-05-12T08:46:40.070Z,105526.66
2023-05-12T08:49:15.761Z,105708.66
2023-05-12T08:51:54.392Z,106020.38
2023-05-12T08:54:27.520Z,105962.91
2023-05-12T08:59:26.703Z,106162.41
2023-05-12T09:01:56.230Z,106235.22
2023-05-12T09:04:24.171Z,106282.00
2023-05-12T09:06:55.935Z,106367.59
2023-05-12T09:09:26.229Z,106294.56
2023-05-12T09:11:57.957Z,106286.50
2023-05-12T09:14:26.943Z,106433.25
2023-05-12T09:17:02.360Z,106409.81
2023-05-12T09:19:31.383Z,106225.44
2023-05-12T09:22:01.921Z,106175.75
2023-05-12T09:24:38.230Z,106296.34
2023-05-12T09:27:07.091Z,106556.72
2023-05-12T09:29:42.517Z,106567.34
2023-05-12T09:32:19.588Z,106592.63
2023-05-12T09:34:52.522Z,106875.88
2023-05-12T09:37:21.694Z,106881.34
2023-05-12T09:39:59.681Z,106988.00
2023-05-12T09:42:30.451Z,107021.38
2023-05-12T09:45:00.774Z,107276.28
2023-05-12T09:47:29.857Z,107510.72
2023-05-12T09:49:57.908Z,107522.38
2023-05-12T09:52:27.299Z,107578.59
2023-05-12T09:54:55.043Z,107673.75
2023-05-12T09:57:24.335Z,107781.72
2023-05-12T09:59:52.918Z,107655.63
2023-05-12T10:02:24.300Z,107535.97
2023-05-12T10:04:58.595Z,107781.50
2023-05-12T10:07:29.478Z,107467.03
2023-05-12T10:10:01.005Z,107476.97
2023-05-12T10:12:29.691Z,107438.81
2023-05-12T10:14:57.894Z,107549.31
2023-05-12T10:17:27.799Z,107764.19
2023-05-12T10:19:56.032Z,107718.78
2023-05-12T10:22:24.405Z,107654.34
2023-05-12T10:24:55.779Z,107511.13
2023-05-12T10:27:24.652Z,107485.75
2023-05-12T10:29:53.721Z,107580.03
2023-05-12T10:32:21.796Z,107689.56
2023-05-12T10:34:49.625Z,107760.31
2023-05-12T10:37:17.757Z,107745.72
2023-05-12T10:39:49.742Z,107725.81
2023-05-12T10:42:25.331Z,107800.13
2023-05-12T10:44:54.280Z,108024.25
2023-05-12T10:47:27.822Z,108036.03
2023-05-12T10:49:58.434Z,108200.56
2023-05-12T10:52:26.195Z,108177.75
2023-05-12T10:55:01.449Z,108217.69
2023-05-12T10:57:31.729Z,108535.19
2023-05-12T11:00:02.478Z,108444.09
2023-05-12T11:02:34.475Z,108263.03
2023-05-12T11:05:05.299Z,108080.22
2023-05-12T11:07:35.635Z,108283.88
2023-05-12T11:10:06.112Z,108472.19
2023-05-12T11:12:37.299Z,108865.75
2023-05-12T11:15:07.641Z,109003.72
2023-05-12T11:17:40.040Z,108989.81
2023-05-12T11:20:09.759Z,108756.28
2023-05-12T11:22:42.752Z,108674.13
2023-05-12T11:25:12.118Z,108249.97
2023-05-12T11:27:47.565Z,108644.84
2023-05-12T11:30:15.908Z,108580.94
2023-05-12T11:32:44.215Z,108865.53
2023-05-12T11:35:13.975Z,109206.75
2023-05-12T11:37:43.483Z,109233.28
2023-05-12T11:40:19.066Z,109127.38
2023-05-12T11:42:51.689Z,108996.63
2023-05-12T11:45:24.764Z,108825.94
2023-05-12T11:47:53.154Z,108984.66
2023-05-12T11:50:25.800Z,109116.97
2023-05-12T11:52:54.658Z,109124.25
2023-05-12T11:55:24.578Z,109260.25
2023-05-12T11:58:01.890Z,109353.59
2023-05-12T12:00:32.299Z,109049.25
2023-05-12T12:03:10.509Z,109147.78
2023-05-12T12:05:38.808Z,109346.09
2023-05-12T12:08:09.015Z,108966.88
2023-05-12T12:10:37.062Z,109096.34
2023-05-12T12:13:07.207Z,109377.97
2023-05-12T12:15:34.962Z,109579.16
2023-05-12T12:18:03.115Z,109208.75
2023-05-12T12:20:31.005Z,108920.00
2023-05-12T12:22:58.936Z,108758.47
2023-05-12T12:25:26.790Z,108652.59
2023-05-12T12:27:54.574Z,108620.69
2023-05-12T12:30:23.766Z,108512.31
2023-05-12T12:32:51.650Z,108460.38
2023-05-12T12:35:19.653Z,108382.94
2023-05-12T12:37:51.294Z,108385.53
2023-05-12T12:40:20.184Z,108089.16
2023-05-12T12:42:48.251Z,108297.13
2023-05-12T12:45:16.991Z,108382.63
2023-05-12T12:47:47.713Z,108399.94
2023-05-12T12:50:15.617Z,108369.78
2023-05-12T12:52:43.543Z,108079.69
2023-05-12T12:55:11.394Z,107946.94
2023-05-12T12:57:39.331Z,108053.19
2023-05-12T13:00:08.678Z,108420.56
2023-05-12T13:02:36.964Z,108535.22
2023-05-12T13:05:07.296Z,108229.31
2023-05-12T13:07:35.130Z,108237.59
2023-05-12T13:10:02.914Z,108528.69
2023-05-12T13:12:31.410Z,108542.34
2023-05-12T13:15:00.322Z,108529.59
2023-05-12T13:17:28.470Z,108318.31
2023-05-12T13:19:59.038Z,108150.94
2023-05-12T13:22:29.065Z,108369.16
2023-05-12T13:24:58.024Z,108426.53
2023-05-12T13:27:25.980Z,108694.13
2023-05-12T13:29:53.744Z,108797.16
2023-05-12T13:32:21.773Z,108529.34
2023-05-12T13:34:49.530Z,108670.44
2023-05-12T13:37:17.586Z,108867.28
2023-05-12T13:39:46.678Z,108781.47
2023-05-12T13:42:14.587Z,108602.00
2023-05-12T13:44:42.472Z,108346.03
2023-05-12T13:47:10.523Z,108313.19
2023-05-12T13:49:38.346Z,108274.84
2023-05-12T13:52:06.788Z,108351.28
2023-05-12T13:54:34.727Z,108450.47
2023-05-12T13:57:04.177Z,108452.34
2023-05-12T13:59:32.350Z,108514.19
2023-05-12T14:02:00.393Z,108332.00
2023-05-12T14:04:28.559Z,108542.56
2023-05-12T14:06:56.364Z,108472.22
2023-05-12T14:09:25.001Z,108434.88
2023-05-12T14:11:54.440Z,108259.19
2023-05-12T14:14:23.552Z,108267.22
2023-05-12T14:16:51.382Z,108340.03
2023-05-12T14:19:19.272Z,108317.22
2023-05-12T14:21:47.081Z,108067.03
2023-05-12T14:24:15.608Z,107895.47
2023-05-12T14:26:43.548Z,108004.34
2023-05-12T14:29:11.310Z,108096.03
2023-05-12T14:31:40.889Z,108099.59
2023-05-12T14:34:09.221Z,108181.31
2023-05-12T14:36:37.111Z,108069.56
2023-05-12T14:39:05.593Z,107891.44
2023-05-12T14:41:33.344Z,107910.50
2023-05-12T14:44:01.120Z,107946.81
2023-05-12T14:46:28.930Z,107986.75
2023-05-12T14:48:58.258Z,107944.88
2023-05-12T14:51:26.023Z,107882.19
2023-05-12T14:53:54.213Z,107651.78
2023-05-12T14:56:22.069Z,107514.88
2023-05-12T14:58:49.984Z,107245.06
2023-05-12T15:01:17.810Z,107029.69
2023-05-12T15:03:46.686Z,106920.47
2023-05-12T15:06:16.592Z,106875.22
2023-05-12T15:08:44.536Z,107086.44
2023-05-12T15:11:12.324Z,107095.50
2023-05-12T15:13:40.176Z,107186.84
2023-05-12T15:16:09.059Z,107075.72
2023-05-12T15:18:36.945Z,106815.44
2023-05-12T15:21:05.482Z,106810.94
2023-05-12T15:23:34.691Z,106678.38
2023-05-12T15:26:15.445Z,106439.41
2023-05-12T15:28:56.132Z,106423.91
2023-05-12T15:31:23.953Z,106297.97
2023-05-12T15:33:51.900Z,106355.47
2023-05-12T15:36:19.694Z,106484.09
2023-05-12T15:38:48.831Z,106386.94
2023-05-12T15:41:16.607Z,106204.25
2023-05-12T15:43:44.378Z,106477.75
2023-05-12T15:46:12.257Z,106311.19
2023-05-12T15:48:40.149Z,106414.91
2023-05-12T15:51:08.218Z,106437.16
2023-05-12T15:53:36.263Z,106170.78
2023-05-12T15:56:06.589Z,105956.84
2023-05-12T15:58:34.460Z,105828.38
2023-05-12T16:01:02.271Z,105874.91
2023-05-12T16:03:30.158Z,105666.13
2023-05-12T16:05:58.254Z,105668.56
2023-05-12T16:08:26.058Z,105617.41
2023-05-12T16:10:53.866Z,105314.50
2023-05-12T16:13:22.994Z,105425.47
2023-05-12T16:15:51.287Z,105346.72
2023-05-12T16:18:19.626Z,105360.06
2023-05-12T16:20:48.238Z,105442.53
2023-05-12T16:23:16.164Z,105419.13
2023-05-12T16:25:45.619Z,105292.84
2023-05-12T16:28:14.572Z,104929.91
2023-05-12T16:30:43.784Z,104617.47
2023-05-12T16:33:13.080Z,104397.25
2023-05-12T16:35:41.022Z,104032.59
2023-05-12T16:38:09.042Z,103683.75
2023-05-12T16:40:36.891Z,103487.59
2023-05-12T16:43:04.637Z,103351.00
2023-05-12T16:45:32.785Z,103230.69
2023-05-12T16:48:01.907Z,103105.09
2023-05-12T16:50:29.709Z,103014.97
2023-05-12T16:52:57.547Z,102952.22
2023-05-12T16:55:25.537Z,102919.50
2023-05-12T16:57:53.344Z,102871.81
2023-05-12T17:00:21.891Z,102820.44
2023-05-12T17:02:49.969Z,102764.03
2023-05-12T17:05:19.680Z,102711.09
2023-05-12T17:07:47.748Z,102669.66
2023-05-12T17:10:16.011Z,102618.34
2023-05-12T17:12:43.865Z,102576.00
2023-05-12T17:15:12.765Z,102501.00
2023-05-12T17:17:40.527Z,102480.78
2023-05-12T17:20:09.276Z,102439.56
2023-05-12T17:22:42.566Z,102397.16
2023-05-12T17:25:10.809Z,102358.41
2023-05-12T17:27:38.509Z,102321.38
2023-05-12T17:30:09.267Z,102288.00
2023-05-12T17:32:37.920Z,102262.41
2023-05-12T17:35:06.630Z,102222.59
2023-05-12T17:37:34.679Z,102173.59
2023-05-12T17:40:07.213Z,102130.03
2023-05-12T17:42:35.279Z,102090.84
2023-05-12T17:45:03.346Z,102082.03
2023-05-12T17:47:31.112Z,102070.53
2023-05-12T17:49:59.376Z,102024.03
2023-05-12T17:52:27.424Z,101983.41
2023-05-12T17:54:57.254Z,101966.06
2023-05-12T17:57:27.040Z,101924.66
2023-05-12T17:59:54.917Z,101884.19
2023-05-12T18:02:22.893Z,101885.31
2023-05-12T18:04:50.734Z,101844.72
2023-05-12T18:07:18.613Z,101796.56
2023-05-12T18:09:46.377Z,101751.59
2023-05-12T18:12:14.122Z,101700.91
2023-05-12T18:14:43.525Z,101693.94
2023-05-12T18:17:11.659Z,101657.81
2023-05-12T18:19:39.423Z,101620.22
2023-05-12T18:22:07.226Z,101537.66
2023-05-12T18:24:35.692Z,101517.66
2023-05-12T18:27:05.276Z,101516.69
2023-05-12T18:29:35.767Z,101458.00
2023-05-12T18:32:06.089Z,101414.38
2023-05-12T18:34:33.841Z,101403.00
2023-05-12T18:37:02.106Z,101380.94
2023-05-12T18:39:29.876Z,101334.50
2023-05-12T18:41:57.792Z,101295.28
2023-05-12T18:44:25.608Z,101266.25
2023-05-12T18:46:53.731Z,101245.56
2023-05-12T18:49:22.913Z,101227.78
2023-05-12T18:51:50.721Z,101181.59
2023-05-12T18:54:18.509Z,101133.25
2023-05-12T18:56:47.346Z,101086.03
2023-05-12T18:59:15.180Z,101012.63
2023-05-12T19:01:42.989Z,100964.59
2023-05-12T19:04:10.875Z,100925.44
2023-05-12T19:06:39.990Z,100931.38
2023-05-12T19:09:08.311Z,100871.22
2023-05-12T19:11:36.547Z,100845.22
2023-05-12T19:14:04.290Z,100781.56
2023-05-12T19:16:34.382Z,100778.63
2023-05-12T19:19:03.079Z,100736.81
2023-05-12T19:21:32.366Z,100730.84
2023-05-12T19:24:01.876Z,100659.34
2023-05-12T19:26:29.685Z,100611.50
2023-05-12T19:29:00.446Z,100553.03
2023-05-12T19:31:28.501Z,100496.22
2023-05-12T19:33:56.521Z,100436.34
2023-05-12T19:36:29.121Z,100321.47
2023-05-12T19:38:59.577Z,100229.25
2023-05-12T19:41:29.653Z,100185.06
2023-05-12T19:43:57.631Z,100171.00
2023-05-12T19:46:25.668Z,100188.56
2023-05-12T19:48:53.708Z,100163.38
2023-05-12T19:51:21.616Z,100142.31
2023-05-12T19:53:49.368Z,100088.59
2023-05-12T19:56:18.741Z,100048.41
2023-05-12T19:58:47.950Z,100005.38
2023-05-12T20:01:15.831Z,99896.69
2023-05-12T20:03:43.712Z,99816.94
2023-05-12T20:06:11.741Z,99754.34
2023-05-12T20:08:39.593Z,99675.47
2023-05-12T20:11:08.245Z,99594.31
2023-05-12T20:13:36.121Z,99580.44
2023-05-12T20:16:05.920Z,99529.28
2023-05-12T20:18:33.728Z,99498.06
2023-05-12T20:21:01.465Z,99473.81
2023-05-12T20:23:29.275Z,99423.66
2023-05-12T20:25:57.522Z,99409.81
2023-05-12T20:28:25.238Z,99383.78
2023-05-12T20:30:53.173Z,99346.53
2023-05-12T20:33:23.021Z,99277.56
2023-05-12T20:35:50.885Z,99194.47
2023-05-12T20:38:20.700Z,99118.38
2023-05-12T20:40:48.530Z,99051.03
2023-05-12T20:43:16.460Z,98993.34
2023-05-12T20:45:44.343Z,98990.81
2023-05-12T20:48:12.185Z,98965.69
2023-05-12T20:50:42.161Z,98933.84
2023-05-12T20:53:09.977Z,98900.06
2023-05-12T20:55:37.890Z,98919.03
2023-05-12T20:58:05.647Z,98957.03
2023-05-12T21:00:33.567Z,98944.75
2023-05-12T21:03:02.965Z,98952.84
2023-05-12T21:05:31.036Z,98933.00
2023-05-12T21:08:00.465Z,98892.25
2023-05-12T21:10:28.307Z,98859.59
2023-05-12T21:12:56.086Z,98848.72
2023-05-12T21:15:25.926Z,98842.44
2023-05-12T21:17:54.460Z,98840.75
2023-05-12T21:20:22.559Z,98814.66
2023-05-12T21:22:50.506Z,98789.00
2023-05-12T21:25:19.776Z,98739.22
2023-05-12T21:27:47.626Z,98681.34
2023-05-12T21:30:15.616Z,98627.81
2023-05-12T21:32:43.410Z,98600.19
2023-05-12T21:35:11.448Z,98584.88
2023-05-12T21:37:39.630Z,98584.88
2023-05-12T21:40:11.405Z,98564.81
2023-05-12T21:42:40.544Z,98553.81
2023-05-12T21:45:09.443Z,98536.41
2023-05-12T21:47:37.373Z,98514.25
2023-05-12T21:50:05.773Z,98456.16
2023-05-12T21:52:34.076Z,98419.44
2023-05-12T21:55:04.629Z,98392.81
2023-05-12T21:57:32.459Z,98372.09
2023-05-12T22:00:04.154Z,98374.06
2023-05-12T22:02:32.297Z,98351.50
2023-05-12T22:05:00.027Z,98401.19
2023-05-12T22:07:28.615Z,98458.94
2023-05-12T22:09:56.490Z,98469.25
2023-05-12T22:12:24.330Z,98476.91
2023-05-12T22:14:52.297Z,98594.91
2023-05-12T22:17:21.850Z,98689.69
2023-05-12T22:19:49.598Z,98811.16
2023-05-12T22:22:17.867Z,98817.97
2023-05-12T22:25:01.657Z,98843.97
2023-05-12T22:27:29.433Z,98856.78
2023-05-12T22:29:57.419Z,98794.00
2023-05-12T22:32:29.125Z,98731.25
2023-05-12T22:34:56.921Z,98695.97
2023-05-12T22:37:25.302Z,98678.53
2023-05-12T22:39:53.009Z,98634.50
2023-05-12T22:42:20.929Z,98582.94
2023-05-12T22:44:48.668Z,98548.38
2023-05-12T22:47:16.646Z,98511.59
2023-05-12T22:49:45.922Z,98451.97
2023-05-12T22:52:13.721Z,98396.16
2023-05-12T22:54:41.490Z,98329.13
2023-05-12T22:57:09.250Z,98265.69
2023-05-12T22:59:36.992Z,98222.75
2023-05-12T23:02:04.805Z,98232.19
2023-05-12T23:04:32.665Z,98196.84
2023-05-12T23:07:01.860Z,98165.19
2023-05-12T23:09:29.689Z,98129.06
2023-05-12T23:11:57.517Z,98113.78
2023-05-12T23:14:25.345Z,98108.50
2023-05-12T23:16:53.325Z,98085.28
2023-05-12T23:19:21.226Z,98063.75
2023-05-12T23:21:49.112Z,98062.22
2023-05-12T23:24:18.401Z,98031.88
2023-05-12T23:26:46.208Z,98015.72
2023-05-12T23:29:13.993Z,98006.44
2023-05-12T23:31:41.930Z,97967.66
2023-05-12T23:34:10.016Z,97964.34
2023-05-12T23:36:38.844Z,97948.78
2023-05-12T23:39:06.593Z,97916.19
2023-05-12T23:41:36.700Z,97914.69
2023-05-12T23:44:04.713Z,97892.19
2023-05-12T23:46:32.544Z,97884.56
2023-05-12T23:49:00.617Z,97881.09
2023-05-12T23:51:29.544Z,97880.38
2023-05-12T23:53:57.960Z,97852.78
2023-05-12T23:56:25.674Z,97826.28
2023-05-12T23:58:55.366Z,97795.69
